Time,TemperatureF,DewpointF,PressureIn,WindDirection,WindDirectionDegrees,WindSpeedMPH,WindSpeedGustMPH,Humidity,HourlyPrecipIn,Conditions,Clouds,dailyrainin,SoftwareType,DateUTC
2013-01-26 00:03:00,8.0,2.0,27.78,West,269,1.0,4.0,76,0.00,,,0.00,,2013-01-26 05:03:00,
2013-01-26 00:12:00,8.0,2.0,27.78,West,269,1.0,4.0,76,0.00,,,0.00,,2013-01-26 05:12:00,
2013-01-26 00:23:00,8.0,2.0,27.77,WNW,286,2.0,5.0,77,0.00,,,0.00,,2013-01-26 05:23:00,
2013-01-26 00:33:00,8.0,2.0,27.77,WNW,286,2.0,5.0,77,0.00,,,0.00,,2013-01-26 05:33:00,
2013-01-26 00:42:00,8.0,2.0,27.77,WNW,286,2.0,5.0,77,0.00,,,0.00,,2013-01-26 05:42:00,
2013-01-26 00:53:00,8.0,3.0,27.77,WNW,285,1.0,3.0,78,0.00,,,0.00,,2013-01-26 05:53:00,
2013-01-26 01:03:00,8.0,3.0,27.76,SW,233,1.0,3.0,78,0.00,,,0.00,,2013-01-26 06:03:00,
2013-01-26 01:12:00,8.0,3.0,27.76,SW,233,1.0,3.0,78,0.00,,,0.00,,2013-01-26 06:12:00,
2013-01-26 01:21:00,8.0,3.0,27.76,West,263,0.0,2.0,78,0.00,,,0.00,,2013-01-26 06:21:00,
2013-01-26 01:32:00,8.0,3.0,27.76,WSW,255,1.0,1.0,78,0.00,,,0.00,,2013-01-26 06:32:00,
2013-01-26 01:42:00,8.0,3.0,27.76,WSW,255,1.0,1.0,78,0.00,,,0.00,,2013-01-26 06:42:00,
2013-01-26 01:52:00,8.0,3.0,27.76,WSW,257,1.0,2.0,78,0.00,,,0.00,,2013-01-26 06:52:00,
2013-01-26 02:02:00,8.0,3.0,27.76,WSW,257,1.0,2.0,78,0.00,,,0.00,,2013-01-26 07:02:00,
2013-01-26 02:12:00,8.0,3.0,27.76,WSW,257,1.0,2.0,78,0.00,,,0.00,,2013-01-26 07:12:00,
2013-01-26 02:22:00,8.0,3.0,27.76,WSW,257,1.0,2.0,78,0.00,,,0.00,,2013-01-26 07:22:00,
2013-01-26 02:33:00,7.0,2.0,27.76,WSW,246,2.0,3.0,78,0.00,,,0.00,,2013-01-26 07:33:00,
2013-01-26 02:42:00,7.0,2.0,27.76,WSW,246,2.0,3.0,78,0.00,,,0.00,,2013-01-26 07:42:00,
2013-01-26 02:52:00,7.0,2.0,27.76,NW,314,1.0,3.0,78,0.00,,,0.00,,2013-01-26 07:52:00,
2013-01-26 03:02:00,7.0,1.0,27.76,WSW,257,2.0,5.0,76,0.00,,,0.00,,2013-01-26 08:02:00,
2013-01-26 03:11:00,7.0,1.0,27.76,WSW,257,2.0,5.0,76,0.00,,,0.00,,2013-01-26 08:11:00,
2013-01-26 03:22:00,7.0,1.0,27.75,West,278,0.0,6.0,77,0.00,,,0.00,,2013-01-26 08:22:00,
2013-01-26 03:32:00,7.0,1.0,27.75,West,266,2.0,6.0,77,0.00,,,0.00,,2013-01-26 08:32:00,
2013-01-26 03:42:00,7.0,1.0,27.75,West,266,2.0,6.0,77,0.00,,,0.00,,2013-01-26 08:42:00,
2013-01-26 03:54:00,7.0,1.0,27.74,WNW,285,1.0,3.0,77,0.00,,,0.00,,2013-01-26 08:54:00,
2013-01-26 04:02:00,7.0,1.0,27.74,WNW,285,1.0,3.0,77,0.00,,,0.00,,2013-01-26 09:02:00,
2013-01-26 04:11:00,7.0,1.0,27.74,WNW,285,1.0,3.0,77,0.00,,,0.00,,2013-01-26 09:11:00,
2013-01-26 04:22:00,6.0,1.0,27.74,WNW,294,2.0,5.0,80,0.00,,,0.00,,2013-01-26 09:22:00,
2013-01-26 04:32:00,5.0,0.0,27.75,West,264,2.0,4.0,81,0.00,,,0.00,,2013-01-26 09:32:00,
2013-01-26 04:42:00,5.0,0.0,27.75,West,264,2.0,4.0,81,0.00,,,0.00,,2013-01-26 09:42:00,
2013-01-26 04:52:00,5.0,1.0,27.75,SW,221,1.0,3.0,82,0.00,,,0.00,,2013-01-26 09:52:00,
2013-01-26 05:01:00,5.0,1.0,27.75,SW,221,1.0,3.0,82,0.00,,,0.00,,2013-01-26 10:01:00,
2013-01-26 05:12:00,5.0,1.0,27.75,SW,221,1.0,3.0,82,0.00,,,0.00,,2013-01-26 10:12:00,
2013-01-26 05:21:00,5.0,1.0,27.74,West,266,1.0,4.0,82,0.00,,,0.00,,2013-01-26 10:21:00,
2013-01-26 05:32:00,5.0,1.0,27.74,West,266,1.0,4.0,82,0.00,,,0.00,,2013-01-26 10:32:00,
2013-01-26 05:42:00,5.0,1.0,27.74,West,266,1.0,4.0,82,0.00,,,0.00,,2013-01-26 10:42:00,
2013-01-26 05:52:00,4.0,-1.0,27.75,WSW,249,0.0,2.0,81,0.00,,,0.00,,2013-01-26 10:52:00,
2013-01-26 06:01:00,4.0,-1.0,27.75,WSW,249,0.0,2.0,81,0.00,,,0.00,,2013-01-26 11:01:00,
2013-01-26 06:12:00,4.0,-1.0,27.75,WSW,249,0.0,2.0,81,0.00,,,0.00,,2013-01-26 11:12:00,
2013-01-26 06:22:00,4.0,0.0,27.76,WNW,302,1.0,4.0,82,0.00,,,0.00,,2013-01-26 11:22:00,
2013-01-26 06:32:00,4.0,0.0,27.76,WNW,302,1.0,4.0,82,0.00,,,0.00,,2013-01-26 11:32:00,
2013-01-26 06:42:00,4.0,0.0,27.76,WNW,302,1.0,4.0,82,0.00,,,0.00,,2013-01-26 11:42:00,
2013-01-26 06:52:00,4.0,0.0,27.77,WNW,291,1.0,5.0,82,0.00,,,0.00,,2013-01-26 11:52:00,
2013-01-26 07:02:00,4.0,0.0,27.77,WNW,291,1.0,5.0,82,0.00,,,0.00,,2013-01-26 12:02:00,
2013-01-26 07:12:00,4.0,0.0,27.77,WNW,291,1.0,5.0,82,0.00,,,0.00,,2013-01-26 12:12:00,
2013-01-26 07:23:00,3.0,-1.0,27.78,WNW,283,1.0,4.0,82,0.00,,,0.00,,2013-01-26 12:23:00,
2013-01-26 07:33:00,3.0,-1.0,27.78,WNW,283,1.0,4.0,82,0.00,,,0.00,,2013-01-26 12:33:00,
2013-01-26 07:42:00,3.0,-1.0,27.78,WNW,283,1.0,4.0,82,0.00,,,0.00,,2013-01-26 12:42:00,
2013-01-26 07:53:00,3.0,-1.0,27.79,NW,307,1.0,4.0,82,0.00,,,0.00,,2013-01-26 12:53:00,
2013-01-26 08:03:00,4.0,-1.0,27.80,WNW,301,1.0,5.0,80,0.00,,,0.00,,2013-01-26 13:03:00,
2013-01-26 08:12:00,4.0,-1.0,27.80,WNW,301,1.0,5.0,80,0.00,,,0.00,,2013-01-26 13:12:00,
2013-01-26 08:22:00,4.0,-1.0,27.80,WNW,301,1.0,5.0,80,0.00,,,0.00,,2013-01-26 13:22:00,
2013-01-26 08:33:00,6.0,0.0,27.80,WNW,294,2.0,5.0,76,0.00,,,0.00,,2013-01-26 13:33:00,
2013-01-26 08:42:00,6.0,0.0,27.80,WNW,294,2.0,5.0,76,0.00,,,0.00,,2013-01-26 13:42:00,
2013-01-26 08:53:00,6.0,0.0,27.80,WNW,294,2.0,5.0,76,0.00,,,0.00,,2013-01-26 13:53:00,
2013-01-26 09:03:00,7.0,0.0,27.81,WNW,287,2.0,5.0,72,0.00,,,0.00,,2013-01-26 14:03:00,
2013-01-26 09:12:00,7.0,0.0,27.81,WNW,287,2.0,5.0,72,0.00,,,0.00,,2013-01-26 14:12:00,
2013-01-26 09:22:00,7.0,0.0,27.81,WNW,287,2.0,5.0,72,0.00,,,0.00,,2013-01-26 14:22:00,
2013-01-26 09:32:00,8.0,-1.0,27.81,WNW,294,3.0,9.0,67,0.00,,,0.00,,2013-01-26 14:32:00,
2013-01-26 09:43:00,8.0,-1.0,27.81,WNW,294,3.0,9.0,67,0.00,,,0.00,,2013-01-26 14:43:00,
2013-01-26 09:53:00,8.0,-1.0,27.81,WNW,294,3.0,9.0,67,0.00,,,0.00,,2013-01-26 14:53:00,
2013-01-26 10:03:00,9.0,-1.0,27.82,WNW,288,4.0,9.0,63,0.00,,,0.00,,2013-01-26 15:03:00,
2013-01-26 10:12:00,9.0,-1.0,27.82,WNW,288,4.0,9.0,63,0.00,,,0.00,,2013-01-26 15:12:00,
2013-01-26 10:22:00,9.0,-1.0,27.82,WNW,288,4.0,9.0,63,0.00,,,0.00,,2013-01-26 15:22:00,
2013-01-26 10:33:00,9.0,-1.0,27.82,WNW,288,4.0,9.0,63,0.00,,,0.00,,2013-01-26 15:33:00,
2013-01-26 10:43:00,9.0,-1.0,27.82,WNW,288,4.0,9.0,63,0.00,,,0.00,,2013-01-26 15:43:00,
2013-01-26 16:32:00,13.0,-8.0,27.84,ENE,74,2.0,8.0,37,0.00,,,0.00,,2013-01-26 21:32:00,
2013-01-26 16:43:00,13.0,-8.0,27.84,ENE,74,2.0,8.0,37,0.00,,,0.00,,2013-01-26 21:43:00,
2013-01-26 16:52:00,12.0,-9.0,27.85,West,271,2.0,9.0,38,0.00,,,0.00,,2013-01-26 21:52:00,
2013-01-26 17:02:00,12.0,-9.0,27.85,SSW,204,3.0,7.0,38,0.00,,,0.00,,2013-01-26 22:02:00,
2013-01-26 17:12:00,12.0,-9.0,27.85,SSW,204,3.0,7.0,38,0.00,,,0.00,,2013-01-26 22:12:00,
2013-01-26 17:22:00,11.0,-9.0,27.86,WNW,290,2.0,6.0,40,0.00,,,0.00,,2013-01-26 22:22:00,
2013-01-26 17:32:00,10.0,-8.0,27.86,North,356,1.0,6.0,42,0.00,,,0.00,,2013-01-26 22:32:00,
2013-01-26 17:42:00,10.0,-8.0,27.86,North,356,1.0,6.0,42,0.00,,,0.00,,2013-01-26 22:42:00,
2013-01-26 17:52:00,10.0,-8.0,27.87,West,270,3.0,7.0,44,0.00,,,0.00,,2013-01-26 22:52:00,
2013-01-26 18:02:00,10.0,-6.0,27.88,SW,232,2.0,5.0,47,0.00,,,0.00,,2013-01-26 23:02:00,
2013-01-26 18:12:00,10.0,-6.0,27.88,SW,232,2.0,5.0,47,0.00,,,0.00,,2013-01-26 23:12:00,
2013-01-26 18:22:00,10.0,-5.0,27.88,ENE,77,3.0,8.0,50,0.00,,,0.00,,2013-01-26 23:22:00,
2013-01-26 18:32:00,9.0,-5.0,27.89,NW,304,2.0,11.0,52,0.00,,,0.00,,2013-01-26 23:32:00,
2013-01-26 18:42:00,9.0,-5.0,27.89,NW,304,2.0,11.0,52,0.00,,,0.00,,2013-01-26 23:42:00,
2013-01-26 18:52:00,9.0,-4.0,27.89,WSW,243,2.0,7.0,55,0.00,,,0.00,,2013-01-26 23:52:00,
2013-01-26 19:02:00,9.0,-4.0,27.89,WSW,243,2.0,7.0,55,0.00,,,0.00,,2013-01-27 00:02:00,
2013-01-26 19:12:00,9.0,-4.0,27.89,WSW,243,2.0,7.0,55,0.00,,,0.00,,2013-01-27 00:12:00,
2013-01-26 19:22:00,9.0,-4.0,27.89,WSW,243,2.0,7.0,55,0.00,,,0.00,,2013-01-27 00:22:00,
2013-01-26 19:32:00,8.0,-3.0,27.89,West,263,0.0,7.0,61,0.00,,,0.00,,2013-01-27 00:32:00,
2013-01-26 19:42:00,8.0,-3.0,27.89,West,263,0.0,7.0,61,0.00,,,0.00,,2013-01-27 00:42:00,
2013-01-26 19:52:00,8.0,-3.0,27.89,West,263,0.0,7.0,61,0.00,,,0.00,,2013-01-27 00:52:00,
2013-01-26 20:02:00,8.0,-2.0,27.90,West,265,1.0,8.0,64,0.00,,,0.00,,2013-01-27 01:02:00,
2013-01-26 20:11:00,8.0,-2.0,27.90,West,265,1.0,8.0,64,0.00,,,0.00,,2013-01-27 01:11:00,
2013-01-26 20:22:00,8.0,-2.0,27.90,West,265,1.0,8.0,64,0.00,,,0.00,,2013-01-27 01:22:00,
2013-01-26 20:32:00,8.0,0.0,27.89,WSW,255,6.0,13.0,68,0.00,,,0.00,,2013-01-27 01:32:00,
2013-01-26 20:42:00,8.0,0.0,27.89,WSW,255,6.0,13.0,68,0.00,,,0.00,,2013-01-27 01:42:00,
2013-01-26 20:52:00,8.0,0.0,27.90,WNW,292,2.0,7.0,68,0.00,,,0.00,,2013-01-27 01:52:00,
2013-01-26 21:01:00,8.0,0.0,27.90,WNW,292,2.0,7.0,68,0.00,,,0.00,,2013-01-27 02:01:00,
2013-01-26 21:12:00,8.0,0.0,27.90,WNW,292,2.0,7.0,68,0.00,,,0.00,,2013-01-27 02:12:00,
2013-01-26 21:22:00,8.0,1.0,27.90,WNW,297,3.0,9.0,71,0.00,,,0.00,,2013-01-27 02:22:00,
2013-01-26 21:32:00,9.0,2.0,27.90,West,271,5.0,15.0,71,0.00,,,0.00,,2013-01-27 02:32:00,
2013-01-26 21:42:00,9.0,2.0,27.90,West,271,5.0,15.0,71,0.00,,,0.00,,2013-01-27 02:42:00,
2013-01-26 21:52:00,9.0,2.0,27.90,West,271,5.0,15.0,71,0.00,,,0.00,,2013-01-27 02:52:00,
2013-01-26 22:02:00,8.0,1.0,27.90,South,189,5.0,10.0,73,0.00,,,0.00,,2013-01-27 03:02:00,
2013-01-26 22:11:00,8.0,1.0,27.90,South,189,5.0,10.0,73,0.00,,,0.00,,2013-01-27 03:11:00,
2013-01-26 22:21:00,8.0,1.0,27.90,South,189,5.0,10.0,73,0.00,,,0.00,,2013-01-27 03:21:00,
2013-01-26 22:32:00,8.0,1.0,27.91,NE,34,4.0,12.0,74,0.00,,,0.00,,2013-01-27 03:32:00,
2013-01-26 22:42:00,8.0,1.0,27.91,NE,34,4.0,12.0,74,0.00,,,0.00,,2013-01-27 03:42:00,
2013-01-26 22:52:00,8.0,1.0,27.91,NE,34,4.0,12.0,74,0.00,,,0.00,,2013-01-27 03:52:00,
2013-01-26 23:02:00,8.0,1.0,27.91,NE,34,4.0,12.0,74,0.00,,,0.00,,2013-01-27 04:02:00,
2013-01-26 23:12:00,8.0,1.0,27.91,NE,34,4.0,12.0,74,0.00,,,0.00,,2013-01-27 04:12:00,
2013-01-26 23:32:00,9.0,2.0,27.93,WNW,284,3.0,9.0,74,0.00,,,0.00,,2013-01-27 04:32:00,
2013-01-26 23:42:00,9.0,2.0,27.93,WNW,284,3.0,9.0,74,0.00,,,0.00,,2013-01-27 04:42:00,
2013-01-26 23:52:00,9.0,3.0,27.94,WSW,256,4.0,10.0,76,0.00,,,0.00,,2013-01-27 04:52:00,